Tiempo atmosférico en la estación meteorológica de Talarn, Lleida (799 m.)



Fecha
DESCASC
Temp. máxima en grados centígrados (hora)
DESCASC
Temp. mínima en grados centígrados (hora)
DESCASC
Temp. media en grados centígrados
DESCASC
Racha de viento máxima en m/sg (hora)
DESCASC
Velocidad máxima media en intervalos de 10 minutos(hora)
DESCASC
Precipitaciones diarias en mm
DESCASC
Precipitaciones de 00:00 a 06:00 en mm
DESCASC
Precipitaciones de 06:00 a 12:00 en mm
DESCASC
Precipitaciones de 12:00 a 18:00 en mm
DESCASC
Precipitaciones de 18:00 a 24:00 en mm
DESCASC
21-12-2019 10.5 (20:10) 5.9 (00:00) 8.2 20.83 (20:50) 12.78 (20:50) 24.8 1 0 16.4 7.4
22-12-2019 12.1 (12:30) 5.7 (00:00) 8.9 15.28 (01:10) 9.72 (01:10) 1.8 0.2 0 1.6 0
20-12-2019 11.8 (13:20) 6.2 (00:00) 9 13.89 (11:40) 8.89 (11:00) 33.2 10.2 17.8 0.4 4.8
17-01-2020 13.2 (13:50) 1.8 (00:00) 7.5 13.06 (15:30) 7.78 (13:50) 0.2 0 0 0.2 0
05-01-2020 11.3 (15:20) -3.5 (-00:0) 3.9 3.89 (08:40) 2.5 (08:40) 0 0 0 0 0
19-12-2019 11 (15:30) 3.1 (05:50) 7 5.83 (11:10) 3.89 (11:10) 4 0 0 0 4
16-01-2020 10.8 (15:40) 0.1 (00:00) 5.5 3.89 (11:50) 2.22 (02:10) 0 0 0 0 0
15-01-2020 9.1 (16:50) -2 (-00:0) 3.6 3.33 (15:50) 1.94 (14:50) 0 0 0 0 0
14-01-2020 9.4 (15:50) -2.4 (-00:0) 3.5 3.61 (13:40) 2.78 (18:40) 0 0 0 0 0
13-01-2020 6.9 (15:00) -2.4 (-00:0) 2.3 3.06 (22:00) 2.22 (22:00) 0 0 0 0 0
12-01-2020 9.3 (16:00) -1.9 (-00:0) 3.7 3.33 (13:20) 2.5 (17:50) 0 0 0 0 0
11-01-2020 8.6 (15:40) -1.2 (-00:0) 3.7 6.11 (02:00) 4.17 (02:00) 0 0 0 0 0
10-01-2020 9.8 (15:50) 2.5 (00:00) 6.2 8.61 (16:10) 5.56 (16:40) 3.6 1.4 2.2 0 0
09-01-2020 11.2 (15:50) 1.5 (00:00) 6.3 3.89 (18:20) 2.22 (18:20) 0 0 0 0 0
08-01-2020 12.4 (15:10) 0.2 (00:00) 6.3 3.89 (12:20) 2.78 (06:40) 0 0 0 0 0
07-01-2020 8.8 (15:00) -1.4 (-00:0) 3.7 2.78 (14:30) 1.94 (19:00) 0 0 0 0 0
06-01-2020 10.1 (16:20) 0.1 (00:00) 5.1 2.78 (18:30) 1.67 (18:30) 0 0 0 0 0
23-12-2019 11.6 (16:20) 1.6 (00:00) 6.6 6.67 (00:20) 3.89 (00:20) 0 0 0 0 0
04-01-2020 7.3 (16:00) -4.1 (-00:0) 1.6 5 (18:50) 3.61 (18:50) 0 0 0 0 0
03-01-2020 4.7 (15:00) -2.4 (-00:0) 1.1 2.5 (20:50) 1.67 (20:50) 0 0 0 0 0
02-01-2020 4.2 (15:00) -4 (-00:0) 0.1 2.5 (05:50) 1.39 (01:00) 0 0 0 0 0
01-01-2020 1.5 (16:30) -2.8 (-00:0) -0.6 3.06 (19:50) 1.67 (20:30) 0 0 0 0 0
31-12-2019 1.2 (14:10) -1.3 (-00:0) 0 2.5 (05:10) 1.94 (05:10) 0 0 0 0 0
30-12-2019 2.1 (15:00) -0.5 (-00:0) 0.8 3.61 (07:20) 2.5 (07:20) 0 0 0 0 0
29-12-2019 9 (15:30) -0.4 (00:00) 4.3 2.78 (15:10) 2.22 (23:00) 0 0 0 0 0
28-12-2019 12.2 (15:10) 1.3 (00:00) 6.7 3.33 (01:00) 2.5 (09:10) 0 0 0 0 0
27-12-2019 10.4 (15:40) 1.1 (00:00) 5.7 3.06 (13:50) 2.22 (17:40) 0 0 0 0 0
26-12-2019 14 (14:10) 3.8 (00:00) 8.9 3.33 (23:59) 2.22 (23:59) 0 0 0 0 0
25-12-2019 12.7 (15:50) 2.7 (00:00) 7.7 2.78 (13:50) 1.67 (13:50) 0 0 0 0 0
24-12-2019 11.7 (16:40) 2.1 (00:00) 6.9 3.61 (00:40) 3.06 (01:40) 0 0 0 0 0

Gráficas

Temp. máximas Temp. mínimas Temp. medias Precipitaciones Rachas de viento máximas Velocidades máximas media en intervalos de 10 minutos

Datos horarios

Fecha y hora oficial Temperatura (ºC) Velocidad del viento (km/h) Dirección del viento Racha (km/h) Dirección de racha Precipitación (mm) Presión (hPa) Tendencia (hPa) Humedad (%)
2020-01-17 23:00:00 2.8 6 Noroeste 10 Noroeste 0 934.5 0.9 66
2020-01-17 22:00:00 4.5 4 Norte 16 Norte 0 934.1 0.9 55
2020-01-17 21:00:00 3.9 5 Noroeste 12 Sudoeste 0 934.1 1.9 67
2020-01-17 20:00:00 5.1 10 Norte 22 Noroeste 0 933.6 2.3 62
2020-01-17 19:00:00 4.5 14 Noroeste 17 Noroeste 0 933.2 2.8 66
2020-01-17 18:00:00 6.3 8 Noroeste 28 Noroeste 0 932.2 1.7 61
2020-01-17 17:00:00 9.7 17 Noroeste 27 Sudoeste 0 931.3 1 51
2020-01-17 16:00:00 10.9 18 Oeste 47 Noroeste 0 930.4 -0.4 46
2020-01-17 15:00:00 9.3 24 Noroeste 42 Noroeste 0.2 930.5 -1.3 56
2020-01-17 14:00:00 10.5 25 Oeste 44 Sudoeste 0 930.3 -1.7 60
2020-01-17 13:00:00 11.8 23 Sudoeste 41 Oeste 0 930.8 -0.7 53
2020-01-17 12:00:00 9.4 6 Sur 13 Sudoeste 0 931.8 0.8 67
2020-01-17 11:00:00 7.6 4 Sudoeste 9 Sudoeste 0 932 1.2 70
2020-01-17 10:00:00 6.8 2 Nordeste 5 Sur 0 931.5 0.6 76
2020-01-17 09:00:00 4.2 4 Noroeste 8 Oeste 0 931 0 84
2020-01-17 08:00:00 4 3 Sudoeste 8 Sudoeste 0 930.8 0.2 86
2020-01-17 07:00:00 3.2 5 Noroeste 10 Norte 0 930.9 -0.5 90
2020-01-17 06:00:00 5 2 Sudeste 16 Sudoeste 0 931 -0.6 83
2020-01-17 05:00:00 4.6 6 Norte 11 Nordeste 0 930.6 -1.2 79
2020-01-17 04:00:00 5 4 Sudoeste 5 Sudoeste 0 931.4 -0.5 74
2020-01-17 03:00:00 4.7 4 Oeste 7 Oeste 0 931.6 -0.6 73
2020-01-17 02:00:00 4.5 3 Sudoeste 6 Oeste 0 931.8 -0.1 73
2020-01-17 01:00:00 5.3 3 Este 9 Norte 0 931.9 -0.1 73
2020-01-17 00:00:00 6 4 Sudoeste 9 Noroeste 0 932.2 0.3 69
2020-01-16 23:00:00 5.9 0 Calma 5 Norte 0 931.9 0.1 68
2020-01-16 22:00:00 7.2 3 Sudoeste 9 Norte 0 932 0.6 63
2020-01-16 21:00:00 6.7 3 Oeste 6 Sur 0 931.9 0.8 63
2020-01-16 20:00:00 7.3 2 Oeste 8 Norte 0 931.8 0.7 63
2020-01-16 19:00:00 7.4 3 Norte 6 Norte 0 931.4 0.2 61
2020-01-16 18:00:00 7.8 2 Norte 4 Sur 0 931.1 -0.3 58
2020-01-16 17:00:00 10.2 3 Sudeste 9 Sur 0 931.1 -0.9 50
2020-01-16 16:00:00 10.4 8 Sur 13 Sur 0 931.2 -1.7 50
2020-01-16 15:00:00 10.3 6 Sur 11 Sur 0 931.4 -2.4 51
2020-01-16 14:00:00 9.2 6 Sur 13 Sur 0 932 -2.1 54
2020-01-16 13:00:00 8 6 Sur 12 Sur 0 932.9 -1.1 59
2020-01-16 12:00:00 5.6 6 Sur 14 Sur 0 933.8 0 66
2020-01-16 11:00:00 5.5 5 Sur 8 Sudoeste 0 934.1 0.5 67
2020-01-16 10:00:00 4.4 4 Sur 6 Sudoeste 0 934 0.6 69
2020-01-16 09:00:00 1.7 2 Sudoeste 6 Sudoeste 0 933.8 0.8 79
2020-01-16 08:00:00 0.3 0 Calma 5 Norte 0 933.6 0.7 80
2020-01-16 07:00:00 0.5 2 Norte 5 Norte 0 933.4 0.5 79
2020-01-16 06:00:00 1.1 2 Norte 4 Oeste 0 933 0.1 80
2020-01-16 05:00:00 1.6 2 Norte 4 Nordeste 0 932.9 0.3 80
2020-01-16 04:00:00 2.3 0 Calma 4 Norte 0 932.9 0.1 74
2020-01-16 03:00:00 1.8 2 Norte 9 Noroeste 0 932.9 0.2 76
2020-01-16 02:00:00 2.2 6 Noroeste 8 Noroeste 0 932.6 0.3 78
2020-01-16 01:00:00 2.8 4 Norte 6 Norte 0 932.8 0.8 76
2020-01-16 00:00:00 3.8 2 Norte 5 Sur 0 932.7 1 71
2020-01-15 23:00:00 4.8 4 Oeste 6 Oeste 0 932.3 0.7 65
2020-01-15 22:00:00 4.9 3 Sudoeste 8 Norte 0 932 1.3 65
2020-01-15 21:00:00 4.8 4 Sudoeste 10 Norte 0 931.7 1.9 64
2020-01-15 20:00:00 4.5 3 Norte 7 Norte 0 931.6 2.6 63
2020-01-15 19:00:00 5.8 2 Noroeste 7 Sur 0 930.7 1.9 58
2020-01-15 18:00:00 6.3 4 Oeste 6 Oeste 0 929.8 1.2 56
2020-01-15 17:00:00 8.5 3 Sudoeste 12 Sudoeste 0 929 0 47
2020-01-15 16:00:00 8.4 6 Sur 12 Sudoeste 0 928.8 -0.6 48
2020-01-15 15:00:00 8 6 Sur 12 Sur 0 928.6 -1.3 51
2020-01-15 14:00:00 7 5 Sur 11 Sur 0 929 -1.3 54
2020-01-15 13:00:00 6.2 6 Sur 12 Sur 0 929.4 0 59
2020-01-15 12:00:00 4.6 6 Sur 10 Sur 0 929.9 1.3 62
2020-01-15 11:00:00 2 5 Sudoeste 8 Sudoeste 0 930.3 1.8 67
2020-01-15 10:00:00 0.1 2 Este 8 Norte 0 929.4 1.4 70
2020-01-15 09:00:00 -0.7 3 Oeste 6 Oeste 0 928.6 0.9 75
2020-01-15 08:00:00 -1 4 Norte 6 Norte 0 928.5 1.1 71
2020-01-15 07:00:00 -0.6 4 Sudoeste 6 Norte 0 928 0.5 71
2020-01-15 06:00:00 0 3 Noroeste 6 Norte 0 927.7 0.1 68
2020-01-15 05:00:00 -0.7 4 Nordeste 5 Nordeste 0 927.4 0 72
2020-01-15 04:00:00 0.6 3 Sudoeste 8 Norte 0 927.5 -0.2 67
2020-01-15 03:00:00 -0.7 7 Norte 8 Norte 0 927.6 -0.3 71
2020-01-15 02:00:00 1 4 Noroeste 6 Noroeste 0 927.4 -0.4 62
2020-01-15 01:00:00 2.2 2 Sudoeste 5 Noroeste 0 927.7 -0.1 58
2020-01-15 00:00:00 2.8 0 Calma 4 Sudeste 0 927.9 0.1 57
2020-01-14 23:00:00 3 3 Sudoeste 6 Norte 0 927.8 0.1 58
2020-01-14 22:00:00 3.3 0 Calma 7 Norte 0 927.8 0.7 56
2020-01-14 21:00:00 3.9 4 Oeste 10 Norte 0 927.8 1.2 53
2020-01-14 20:00:00 4.2 3 Sudoeste 8 Norte 0 927.7 1.4 53
2020-01-14 19:00:00 3.8 7 Norte 12 Norte 0 927.1 1 54
2020-01-14 18:00:00 4.3 9 Norte 11 Norte 0 926.6 0.4 54
2020-01-14 17:00:00 8.7 3 Sudoeste 9 Sur 0 926.3 -0.4 39
2020-01-14 16:00:00 9.1 5 Sur 11 Sudoeste 0 926.1 -0.9 38
2020-01-14 15:00:00 8.6 6 Sur 13 Sur 0 926.2 -1.3 42
2020-01-14 14:00:00 7.6 6 Sur 13 Sudoeste 0 926.7 -0.8 48
2020-01-14 13:00:00 6.8 7 Sur 12 Sur 0 927 -0.3 55
2020-01-14 12:00:00 5 5 Sur 10 Sudoeste 0 927.5 0.7 59
2020-01-14 11:00:00 3.2 4 Sudoeste 8 Sur 0 927.5 0.9 61
2020-01-14 10:00:00 2.2 2 Sur 5 Sudeste 0 927.3 0.9 60
2020-01-14 09:00:00 0.4 3 Sudoeste 5 Sudoeste 0 926.8 0.6 65
2020-01-14 08:00:00 -2.4 3 Norte 5 Nordeste 0 926.6 0.4 69
2020-01-14 07:00:00 -0.9 2 Oeste 9 Norte 0 926.4 0.1 67
2020-01-14 06:00:00 -0.7 4 Sudoeste 9 Noroeste 0 926.2 -0.4 68
2020-01-14 05:00:00 -0.5 0 Calma 4 Sudoeste 0 926.2 -0.5 66
2020-01-14 04:00:00 -0.1 0 Calma 7 Noroeste 0 926.3 -0.9 66
2020-01-14 03:00:00 0.1 4 Noroeste 6 Noroeste 0 926.6 -0.9 62
2020-01-14 02:00:00 0.8 3 Sudoeste 6 Sudoeste 0 926.7 -0.6 60
2020-01-14 01:00:00 0.9 3 Sudoeste 5 Sudoeste 0 927.2 0 63
2020-01-14 00:00:00 0.9 2 Oeste 9 Norte 0 927.5 0.2 62
2020-01-13 23:00:00 0.2 8 Norte 10 Norte 0 927.3 0.1 64
2020-01-13 22:00:00 0.7 8 Norte 11 Norte 0 927.2 -0.3 62
2020-01-13 21:00:00 2.2 4 Oeste 6 Sudoeste 0 927.3 -0.2 56
2020-01-13 20:00:00 2.8 2 Este 5 Nordeste 0 927.2 -0.1 52
2020-01-13 19:00:00 2.6 0 Calma 9 Norte 0 927.5 0.1 62
2020-01-13 18:00:00 3.5 2 Nordeste 6 Oeste 0 927.5 0 58
2020-01-13 17:00:00 4.7 6 Norte 7 Norte 0 927.3 -0.7 62
2020-01-13 16:00:00 6.1 0 Calma 10 Sur 0 927.4 -1.7 57
2020-01-13 15:00:00 6.6 4 Sur 9 Sur 0 927.5 -2.5 57
2020-01-13 14:00:00 5.9 5 Sur 10 Sur 0 928 -2.5 58
2020-01-13 13:00:00 5 5 Sur 8 Sur 0 929.1 -1.4 58
2020-01-13 12:00:00 3.5 4 Sur 7 Sur 0 930 -0.3 58
2020-01-13 11:00:00 2.5 4 Sur 7 Sur 0 930.5 -0.1 60
2020-01-13 10:00:00 1.5 3 Oeste 5 Oeste 0 930.5 -0.1 61
2020-01-13 09:00:00 -0.6 2 Sur 5 Sudoeste 0 930.3 -0.5 66
2020-01-13 08:00:00 -1.8 2 Nordeste 4 Oeste 0 930.6 -0.4 63
2020-01-13 07:00:00 -1 2 Sudoeste 3 Noroeste 0 930.6 -0.9 64
2020-01-13 06:00:00 -0.8 0 Calma 3 Noroeste 0 930.8 -1.3 58
2020-01-13 05:00:00 -1.3 3 Este 4 Nordeste 0 931 -1 60
2020-01-13 04:00:00 -0.9 2 Oeste 5 Sudoeste 0 931.5 -1.3 65
2020-01-13 03:00:00 -0.8 0 Calma 4 Oeste 0 932.1 -1.2 63
2020-01-13 02:00:00 0.2 0 Calma 5 Oeste 0 932 -1.8 63
2020-01-13 01:00:00 0.6 3 Sudoeste 5 Sudoeste 0 932.8 -1.2 65
2020-01-13 00:00:00 1 0 Calma 5 Sudeste 0 933.3 -0.8 65
2020-01-12 23:00:00 1.6 0 Calma 5 Noroeste 0 933.8 -0.5 59
2020-01-12 22:00:00 2.1 3 Sur 8 Noroeste 0 934 0 63
2020-01-12 21:00:00 2.9 2 Sudeste 7 Norte 0 934.1 0.4 59
2020-01-12 20:00:00 3.4 4 Sudoeste 9 Noroeste 0 934.3 0.8 57
2020-01-12 19:00:00 4 0 Calma 9 Norte 0 934 0.8 51
2020-01-12 18:00:00 3.7 9 Norte 10 Norte 0 933.7 0.5 50
2020-01-12 17:00:00 7.5 2 Este 9 Sur 0 933.5 0.2 42
2020-01-12 16:00:00 8.9 4 Sur 9 Sur 0 933.2 -0.8 45
2020-01-12 15:00:00 7.6 5 Sur 12 Sur 0 933.2 -1.7 49
2020-01-12 14:00:00 6.7 6 Sur 12 Sur 0 933.3 -1.8 49
2020-01-12 13:00:00 5.4 5 Sur 10 Sur 0 934 -0.8 55
2020-01-12 12:00:00 4.1 5 Sur 10 Sur 0 934.9 0.5 52
2020-01-12 11:00:00 2.9 4 Sudoeste 8 Sur 0 935.1 1 64
2020-01-12 10:00:00 1.5 4 Sudoeste 7 Sur 0 934.8 0.9 68
2020-01-12 09:00:00 -0.3 2 Este 4 Este 0 934.4 1 69
2020-01-12 08:00:00 -1.4 3 Sur 4 Sur 0 934.1 0.7 70
2020-01-12 07:00:00 -1.5 0 Calma 3 Oeste 0 933.9 0.4 69
2020-01-12 06:00:00 -1.1 0 Calma 3 Sur 0 933.4 -0.5 71
2020-01-12 05:00:00 -1 2 Norte 4 Oeste 0 933.4 -0.5 65
2020-01-12 04:00:00 -1.1 4 Norte 5 Norte 0 933.5 -0.6 72
2020-01-12 03:00:00 -0.4 0 Calma 3 Sur 0 933.9 -0.6 72
2020-01-12 02:00:00 0.3 0 Calma 5 Nordeste 0 933.9 -0.6 71
2020-01-12 01:00:00 -0.2 4 Norte 7 Norte 0 934.1 -0.2 66
2020-01-12 00:00:00 0.2 2 Norte 5 Sudoeste 0 934.5 0.2 68
2020-01-11 23:00:00 0.9 0 Calma 5 Sudoeste 0 934.5 0.5 69
2020-01-11 22:00:00 1.8 2 Noroeste 6 Sur 0 934.3 0.5 66
2020-01-11 21:00:00 2.9 3 Sudoeste 7 Noroeste 0 934.3 0.9 58
2020-01-11 20:00:00 3.3 4 Oeste 7 Sur 0 934 0.8 54
2020-01-11 19:00:00 2.9 5 Noroeste 8 Norte 0 933.8 0.6 58
2020-01-11 18:00:00 4.1 4 Norte 5 Norte 0 933.4 0.3 56
2020-01-11 17:00:00 7.7 0 Calma 8 Sur 0 933.2 -0.4 48
2020-01-11 16:00:00 8.3 4 Sur 11 Sur 0 933.2 -1.3 54
2020-01-11 15:00:00 7.6 6 Sur 10 Sur 0 933.1 -2.2 47
2020-01-11 14:00:00 7.7 5 Sur 10 Sur 0 933.6 -1.9 57
2020-01-11 13:00:00 7.1 5 Sudoeste 10 Sur 0 934.5 -0.6 54
2020-01-11 12:00:00 5.7 6 Sur 12 Sur 0 935.3 0.7 59
2020-01-11 11:00:00 4.9 5 Sur 10 Sur 0 935.5 1.1 58
2020-01-11 10:00:00 3 3 Sur 11 Noroeste 0 935.1 1 62
2020-01-11 09:00:00 -0.3 5 Sudoeste 16 Norte 0 934.6 0.6 76
2020-01-11 08:00:00 -0.5 6 Oeste 8 Oeste 0 934.4 0.6 65
2020-01-11 07:00:00 0.3 6 Sur 10 Noroeste 0 934.1 0 71
2020-01-11 06:00:00 1.3 5 Oeste 8 Oeste 0 934 0 59
2020-01-11 05:00:00 1 5 Oeste 11 Noroeste 0 933.8 0.5 65
2020-01-11 04:00:00 1.5 4 Oeste 9 Sur 0 934.1 1 66
2020-01-11 03:00:00 2.4 4 Sudoeste 17 Norte 0 934 0.5 66
2020-01-11 02:00:00 4.9 15 Norte 22 Norte 0 933.3 -0.2 41
2020-01-11 01:00:00 4 7 Oeste 14 Norte 0 933.1 0 44
2020-01-11 00:00:00 4.8 3 Sudoeste 18 Norte 0 933.5 0.5 42
2020-01-10 23:00:00 4.2 7 Noroeste 18 Noroeste 0 933.5 0.8 44
2020-01-10 22:00:00 3.6 10 Norte 15 Norte 0 933.1 0.6 53
2020-01-10 21:00:00 4.1 3 Noroeste 14 Noroeste 0 933 1.2 70
2020-01-10 20:00:00 3.5 9 Norte 13 Noroeste 0 932.7 1.5 70
2020-01-10 19:00:00 5.3 9 Norte 17 Norte 0 932.5 1.5 71
2020-01-10 18:00:00 5.4 6 Nordeste 17 Norte 0 931.8 1 79
2020-01-10 17:00:00 8 6 Norte 31 Sudoeste 0 931.2 0.4 63
2020-01-10 16:00:00 9.8 18 Oeste 30 Sudoeste 0 931 0 61
2020-01-10 15:00:00 9.2 8 Sur 17 Sur 0 930.8 -0.8 68
2020-01-10 14:00:00 9.1 8 Sur 15 Sur 0 930.8 -0.8 71
2020-01-10 13:00:00 8.4 6 Sudoeste 13 Sur 0 931 0.3 76
2020-01-10 12:00:00 6.9 6 Sur 11 Sur 0 931.6 1.7 85
2020-01-10 11:00:00 5.3 8 Sur 12 Sur 0 931.6 1.9 90
2020-01-10 10:00:00 4 4 Oeste 9 Norte 0 930.7 1.1 95
2020-01-10 09:00:00 2.7 6 Norte 12 Oeste 0 929.9 1.4 97
2020-01-10 08:00:00 3.8 5 Oeste 7 Noroeste 0.4 929.7 1.8 90
2020-01-10 07:00:00 3.8 4 Nordeste 14 Norte 1.8 929.6 1.3 93
2020-01-10 06:00:00 3.6 4 Este 6 Nordeste 1.4 928.5 0.1 85
2020-01-10 05:00:00 4.5 3 Nordeste 5 Nordeste 0 927.9 -0.3 77
2020-01-10 04:00:00 4.3 3 Noroeste 6 Oeste 0 928.3 -0.3 78
2020-01-10 03:00:00 4.6 3 Oeste 7 Sudoeste 0 928.4 -0.5 77
2020-01-10 02:00:00 5 4 Oeste 10 Norte 0 928.2 -0.9 74
2020-01-10 01:00:00 4.8 4 Noroeste 9 Norte 0 928.6 -0.8 74
2020-01-10 00:00:00 5.3 4 Noroeste 8 Norte 0 928.9 -0.4 73
2020-01-09 23:00:00 6.3 3 Sudoeste 5 Sur 0 929.1 -0.5 69
2020-01-09 22:00:00 6.3 3 Norte 8 Norte 0 929.4 -0.4 67
2020-01-09 21:00:00 6.2 0 Calma 7 Nordeste 0 929.3 -0.3 68
2020-01-09 20:00:00 5.7 6 Nordeste 8 Este 0 929.6 0.3 70
2020-01-09 19:00:00 7.4 3 Sudeste 14 Oeste 0 929.8 -0.1 62
2020-01-09 18:00:00 7.3 5 Oeste 8 Norte 0 929.6 -0.7 61
2020-01-09 17:00:00 10.1 3 Este 8 Sur 0 929.3 -1.6 53
2020-01-09 16:00:00 11.1 4 Sudeste 9 Sur 0 929.9 -1.8 51
2020-01-09 15:00:00 9.9 6 Sur 12 Sur 0 930.3 -2.3 59
2020-01-09 14:00:00 10.1 5 Sur 11 Sur 0 930.9 -2.4 58
2020-01-09 13:00:00 8.8 6 Sur 11 Sur 0 931.7 -1.5 63
2020-01-09 12:00:00 7.7 5 Sur 9 Sur 0 932.6 -0.3 65
2020-01-09 11:00:00 6.4 5 Sur 8 Sur 0 933.3 0.4 71
2020-01-09 10:00:00 5.4 3 Sur 6 Sur 0 933.2 0 77
2020-01-09 09:00:00 2.2 0 Calma 5 Sudoeste 0 932.9 -0.5 86
2020-01-09 08:00:00 2.1 2 Sudoeste 5 Sudoeste 0 932.9 -0.9 86
2020-01-09 07:00:00 2.4 2 Sudoeste 5 Noroeste 0 933.2 -1.1 85
2020-01-09 06:00:00 2.7 3 Sudoeste 5 Sur 0 933.4 -1.2 83
2020-01-09 05:00:00 3 2 Sudoeste 6 Norte 0 933.8 -0.9 83
2020-01-09 04:00:00 3.3 4 Oeste 5 Oeste 0 934.3 -0.7 78
2020-01-09 03:00:00 3.8 0 Calma 4 Norte 0 934.6 -0.7 80
2020-01-09 02:00:00 4.7 3 Sur 4 Sudeste 0 934.7 -1.1 74
2020-01-09 01:00:00 4.7 2 Oeste 5 Sur 0 935 -0.8 75
2020-01-09 00:00:00 5.8 3 Oeste 8 Noroeste 0 935.3 -0.4 70
2020-01-08 23:00:00 5.4 3 Oeste 7 Oeste 0 935.8 0.1 70
2020-01-08 22:00:00 6.2 2 Oeste 8 Noroeste 0 935.8 0 68
2020-01-08 21:00:00 7 4 Sudoeste 5 Oeste 0 935.7 0.2 63
2020-01-08 20:00:00 6.7 4 Noroeste 12 Norte 0 935.7 0.4 62
2020-01-08 19:00:00 7.7 4 Norte 6 Norte 0 935.8 0.6 58
2020-01-08 18:00:00 8.6 3 Este 6 Norte 0 935.5 0.3 54
2020-01-08 17:00:00 10.4 4 Norte 6 Norte 0 935.3 -0.2 48
2020-01-08 16:00:00 11.9 3 Sur 9 Sur 0 935.2 -0.8 52
2020-01-08 15:00:00 12 4 Sudeste 10 Sur 0 935.2 -1.4 45
2020-01-08 14:00:00 11.1 6 Sur 11 Sur 0 935.5 -1.2 54
2020-01-08 13:00:00 11.5 7 Sudeste 14 Sur 0 936 -0.2 53
2020-01-08 12:00:00 11.3 4 Sudeste 9 Sur 0 936.6 1.3 43
2020-01-08 11:00:00 9.7 6 Este 10 Este 0 936.7 2.1 44
2020-01-08 10:00:00 5.8 3 Norte 12 Norte 0 936.2 2.1 68
2020-01-08 09:00:00 3.1 5 Oeste 8 Norte 0 935.3 1.4 71
2020-01-08 08:00:00 1.1 2 Este 5 Sur 0 934.6 0.7 79
2020-01-08 07:00:00 0.8 6 Sudoeste 12 Norte 0 934.1 0.2 80
2020-01-08 06:00:00 1.3 4 Norte 7 Norte 0 933.9 -0.1 77
2020-01-08 05:00:00 1.9 2 Sudoeste 6 Sur 0 933.9 0.1 77
2020-01-08 04:00:00 1.8 3 Nordeste 6 Norte 0 933.9 0 77
2020-01-08 03:00:00 1.6 3 Sur 6 Noroeste 0 934 0.1 80
2020-01-08 02:00:00 1.6 3 Sudoeste 6 Sur 0 933.8 -0.1 78
2020-01-08 01:00:00 2.5 3 Sudoeste 5 Norte 0 933.9 -0.1 75
2020-01-08 00:00:00 2.3 2 Sudoeste 6 Sudoeste 0 933.9 -0.1 75
2020-01-07 23:00:00 2.8 4 Sudoeste 10 Norte 0 933.9 -0.4 75
2020-01-07 22:00:00 2.5 2 Noroeste 7 Oeste 0 934 0 71
2020-01-07 21:00:00 2.3 2 Noroeste 6 Sur 0 934 0.4 73
2020-01-07 20:00:00 3.4 2 Oeste 9 Noroeste 0 934.3 0.9 72
2020-01-07 19:00:00 3.6 7 Norte 10 Norte 0 934 0.6 75
2020-01-07 18:00:00 5.1 2 Sudoeste 5 Sudoeste 0 933.6 -0.1 71
2020-01-07 17:00:00 7.4 3 Sudoeste 8 Sudoeste 0 933.4 -0.7 57
2020-01-07 16:00:00 8.6 0 Calma 8 Sur 0 933.4 -1.3 59
2020-01-07 15:00:00 8.4 5 Sur 10 Sur 0 933.7 -1.9 60
2020-01-07 14:00:00 6.8 4 Sur 8 Sudoeste 0 934.1 -1.8 65
2020-01-07 13:00:00 6.8 4 Sur 9 Sur 0 934.7 -1.4 63
2020-01-07 12:00:00 5.6 5 Sur 8 Sur 0 935.6 -0.4 64
2020-01-07 11:00:00 4.5 3 Sudoeste 7 Sur 0 935.9 0.7 67
2020-01-07 10:00:00 3.1 0 Calma 5 Sudoeste 0 936.1 1 77
2020-01-07 09:00:00 0.7 0 Calma 5 Sudeste 0 936 1 81
2020-01-07 08:00:00 -0.4 2 Oeste 5 Sur 0 935.2 0.2 84
2020-01-07 07:00:00 -1.3 3 Norte 4 Norte 0 935.1 -0.1 79
2020-01-07 06:00:00 -0.2 0 Calma 4 Sudoeste 0 935 -0.3 81
2020-01-07 05:00:00 -0.2 2 Este 7 Sudoeste 0 935 -0.1 81
2020-01-07 04:00:00 0.6 4 Sudoeste 9 Norte 0 935.2 0.2 77
2020-01-07 03:00:00 1.1 0 Calma 5 Sudoeste 0 935.3 0.6 75
2020-01-07 02:00:00 1.5 3 Oeste 6 Norte 0 935.1 0.3 73
2020-01-07 01:00:00 1.7 3 Oeste 5 Sur 0 935 0.4 71
2020-01-07 00:00:00 2.3 2 Norte 4 Nordeste 0 934.7 0.3 70
2020-01-06 23:00:00 3.1 3 Sur 6 Sudoeste 0 934.8 0.8 67
2020-01-06 22:00:00 3.2 3 Noroeste 6 Norte 0 934.6 1.1 63
2020-01-06 21:00:00 3.8 3 Norte 5 Noroeste 0 934.4 1.3 59
2020-01-06 20:00:00 4.5 2 Sudeste 5 Norte 0 934 1.3 56
2020-01-06 19:00:00 4.7 4 Norte 10 Norte 0 933.5 0.9 60
2020-01-06 18:00:00 6.2 0 Calma 3 Sudoeste 0 933.1 0.6 56
2020-01-06 17:00:00 9.1 0 Calma 7 Sudoeste 0 932.7 -0.2 53
2020-01-06 16:00:00 9.8 3 Sudoeste 9 Sur 0 932.6 -1.1 43
2020-01-06 15:00:00 9 5 Sudoeste 9 Sudoeste 0 932.5 -2 50
2020-01-06 14:00:00 8.3 6 Sur 10 Sur 0 932.9 -2.1 50
2020-01-06 13:00:00 7.3 5 Sudoeste 9 Sudoeste 0 933.7 -1.2 56
2020-01-06 12:00:00 6.1 5 Sudoeste 8 Sudoeste 0 934.5 -0.1 59
2020-01-06 11:00:00 5 4 Sur 6 Sur 0 935 0.8 61
2020-01-06 10:00:00 4.4 2 Sur 4 Sur 0 934.9 0.9 61